sensor_id;sensor_type;location;lat;lon;timestamp;pressure;altitude;pressure_sealevel;temperature;humidity
7018;BME280;3549;42.162;24.726;2023-02-14T00:01:33;47676.69;;;-141.97;52.70
7018;BME280;3549;42.162;24.726;2023-02-14T00:03:59;47547.91;;;-141.97;52.50
7018;BME280;3549;42.162;24.726;2023-02-14T00:06:26;47684.38;;;-141.97;52.25
7018;BME280;3549;42.162;24.726;2023-02-14T00:08:52;47715.13;;;-141.97;52.43
7018;BME280;3549;42.162;24.726;2023-02-14T00:11:19;47634.41;;;-141.97;51.95
7018;BME280;3549;42.162;24.726;2023-02-14T00:13:45;47667.06;;;-141.97;51.51
7018;BME280;3549;42.162;24.726;2023-02-14T00:16:29;47642.09;;;-141.97;50.96
7018;BME280;3549;42.162;24.726;2023-02-14T00:18:54;47630.56;;;-141.97;50.75
7018;BME280;3549;42.162;24.726;2023-02-14T00:21:30;47680.53;;;-141.97;51.10
7018;BME280;3549;42.162;24.726;2023-02-14T00:23:56;47622.88;;;-141.97;50.85
7018;BME280;3549;42.162;24.726;2023-02-14T00:26:22;47751.66;;;-141.97;51.49
7018;BME280;3549;42.162;24.726;2023-02-14T00:28:47;47613.25;;;-141.97;51.52
7018;BME280;3549;42.162;24.726;2023-02-14T00:31:13;47726.66;;;-141.97;51.90
7018;BME280;3549;42.162;24.726;2023-02-14T00:33:38;47680.53;;;-141.97;51.69
7018;BME280;3549;42.162;24.726;2023-02-14T00:36:06;47594.03;;;-141.97;52.19
7018;BME280;3549;42.162;24.726;2023-02-14T00:38:32;47699.75;;;-141.97;52.37
7018;BME280;3549;42.162;24.726;2023-02-14T00:40:58;47665.16;;;-141.97;52.73
7018;BME280;3549;42.162;24.726;2023-02-14T00:43:24;47561.38;;;-141.97;52.71
7018;BME280;3549;42.162;24.726;2023-02-14T00:45:49;47659.38;;;-141.97;52.60
7018;BME280;3549;42.162;24.726;2023-02-14T00:48:15;47678.63;;;-141.97;52.34
7018;BME280;3549;42.162;24.726;2023-02-14T00:50:40;47615.19;;;-141.97;52.17
7018;BME280;3549;42.162;24.726;2023-02-14T00:53:05;47697.84;;;-141.97;52.40
7018;BME280;3549;42.162;24.726;2023-02-14T00:55:31;47588.28;;;-141.97;52.44
7018;BME280;3549;42.162;24.726;2023-02-14T00:57:56;47601.72;;;-141.97;52.30
7018;BME280;3549;42.162;24.726;2023-02-14T01:00:22;47605.56;;;-141.97;52.47
7018;BME280;3549;42.162;24.726;2023-02-14T01:02:47;47703.59;;;-141.97;52.49
7018;BME280;3549;42.162;24.726;2023-02-14T01:05:13;47595.97;;;-141.97;52.25
7018;BME280;3549;42.162;24.726;2023-02-14T01:07:38;47634.41;;;-141.97;52.25
7018;BME280;3549;42.162;24.726;2023-02-14T01:10:04;47599.81;;;-141.97;52.60
7018;BME280;3549;42.162;24.726;2023-02-14T01:12:29;47634.41;;;-141.97;52.87
7018;BME280;3549;42.162;24.726;2023-02-14T01:14:55;47634.41;;;-141.97;52.66
7018;BME280;3549;42.162;24.726;2023-02-14T01:17:20;47645.94;;;-141.97;53.06
7018;BME280;3549;42.162;24.726;2023-02-14T01:19:45;47645.94;;;-141.97;53.13
7018;BME280;3549;42.162;24.726;2023-02-14T01:22:11;47703.59;;;-141.97;53.03
7018;BME280;3549;42.162;24.726;2023-02-14T01:24:36;47597.88;;;-141.97;53.67
7018;BME280;3549;42.162;24.726;2023-02-14T01:27:02;47619.03;;;-141.97;53.82
7018;BME280;3549;42.162;24.726;2023-02-14T01:29:27;47595.97;;;-141.97;53.44
7018;BME280;3549;42.162;24.726;2023-02-14T01:31:52;47617.09;;;-141.97;53.24
7018;BME280;3549;42.162;24.726;2023-02-14T01:34:18;47657.47;;;-141.97;53.89
7018;BME280;3549;42.162;24.726;2023-02-14T01:36:43;47653.63;;;-141.97;54.51
7018;BME280;3549;42.162;24.726;2023-02-14T01:39:13;47720.91;;;-141.97;54.10
7018;BME280;3549;42.162;24.726;2023-02-14T01:41:41;47640.16;;;-141.97;53.67
7018;BME280;3549;42.162;24.726;2023-02-14T01:46:52;47599.81;;;-141.97;52.48
7018;BME280;3549;42.162;24.726;2023-02-14T01:52:16;47686.31;;;-141.97;51.30
7018;BME280;3549;42.162;24.726;2023-02-14T01:54:48;47645.94;;;-141.97;50.78
7018;BME280;3549;42.162;24.726;2023-02-14T01:57:17;47534.44;;;-141.97;50.56
7018;BME280;3549;42.162;24.726;2023-02-14T01:59:50;47615.19;;;-141.97;50.45
7018;BME280;3549;42.162;24.726;2023-02-14T02:02:16;47674.78;;;-141.97;49.72
7018;BME280;3549;42.162;24.726;2023-02-14T02:04:49;47599.81;;;-141.97;49.77
7018;BME280;3549;42.162;24.726;2023-02-14T02:07:22;47609.41;;;-141.97;49.44
7018;BME280;3549;42.162;24.726;2023-02-14T02:09:52;47538.28;;;-141.97;49.23
7018;BME280;3549;42.162;24.726;2023-02-14T02:12:19;47663.22;;;-141.97;49.04
7018;BME280;3549;42.162;24.726;2023-02-14T02:14:46;47644.00;;;-141.97;49.09
7018;BME280;3549;42.162;24.726;2023-02-14T02:41:47;47751.66;;;-141.97;48.01
7018;BME280;3549;42.162;24.726;2023-02-14T02:47:13;47694.00;;;-141.97;48.79
7018;BME280;3549;42.162;24.726;2023-02-14T02:49:55;47655.53;;;-141.97;49.04
7018;BME280;3549;42.162;24.726;2023-02-14T02:58:21;47672.84;;;-141.97;49.80
7018;BME280;3549;42.162;24.726;2023-02-14T03:00:50;47626.72;;;-141.97;49.77
7018;BME280;3549;42.162;24.726;2023-02-14T03:03:19;47690.16;;;-141.97;50.17
7018;BME280;3549;42.162;24.726;2023-02-14T03:06:04;47669.00;;;-141.97;50.16
7018;BME280;3549;42.162;24.726;2023-02-14T03:08:30;47619.03;;;-141.97;50.26
7018;BME280;3549;42.162;24.726;2023-02-14T03:10:55;47642.09;;;-141.97;49.84
7018;BME280;3549;42.162;24.726;2023-02-14T03:16:29;47634.41;;;-141.97;49.53
7018;BME280;3549;42.162;24.726;2023-02-14T03:26:49;47634.41;;;-141.97;49.83
7018;BME280;3549;42.162;24.726;2023-02-14T03:29:28;47651.69;;;-141.97;50.00
7018;BME280;3549;42.162;24.726;2023-02-14T03:37:31;47680.53;;;-141.97;50.11
7018;BME280;3549;42.162;24.726;2023-02-14T03:42:31;47684.38;;;-141.97;49.63
7018;BME280;3549;42.162;24.726;2023-02-14T03:44:59;47649.78;;;-141.97;50.12
7018;BME280;3549;42.162;24.726;2023-02-14T03:47:30;47572.91;;;-141.97;49.93
7018;BME280;3549;42.162;24.726;2023-02-14T03:50:02;47632.47;;;-141.97;49.74
7018;BME280;3549;42.162;24.726;2023-02-14T03:52:29;47669.00;;;-141.97;49.80
7018;BME280;3549;42.162;24.726;2023-02-14T03:54:56;47730.50;;;-141.97;49.81
7018;BME280;3549;42.162;24.726;2023-02-14T03:57:27;47553.69;;;-141.97;49.44
7018;BME280;3549;42.162;24.726;2023-02-14T03:59:55;47661.31;;;-141.97;49.50
7018;BME280;3549;42.162;24.726;2023-02-14T04:02:26;47595.97;;;-141.97;49.53
7018;BME280;3549;42.162;24.726;2023-02-14T04:04:55;47694.00;;;-141.97;49.67
7018;BME280;3549;42.162;24.726;2023-02-14T04:07:22;47630.56;;;-141.97;49.52
7018;BME280;3549;42.162;24.726;2023-02-14T04:09:48;47619.03;;;-141.97;49.65
7018;BME280;3549;42.162;24.726;2023-02-14T04:12:14;47669.00;;;-141.97;49.48
7018;BME280;3549;42.162;24.726;2023-02-14T04:14:40;47642.09;;;-141.97;49.46
7018;BME280;3549;42.162;24.726;2023-02-14T04:17:06;47644.00;;;-141.97;49.39
7018;BME280;3549;42.162;24.726;2023-02-14T04:19:50;47718.97;;;-141.97;49.43
7018;BME280;3549;42.162;24.726;2023-02-14T04:22:15;47699.75;;;-141.97;49.65
7018;BME280;3549;42.162;24.726;2023-02-14T04:24:41;47624.78;;;-141.97;49.56
7018;BME280;3549;42.162;24.726;2023-02-14T04:27:06;47630.56;;;-141.97;49.13
7018;BME280;3549;42.162;24.726;2023-02-14T04:32:09;47599.81;;;-141.97;48.50
7018;BME280;3549;42.162;24.726;2023-02-14T04:34:35;47642.09;;;-141.97;48.19
7018;BME280;3549;42.162;24.726;2023-02-14T04:37:00;47615.19;;;-141.97;48.37
7018;BME280;3549;42.162;24.726;2023-02-14T04:39:26;47597.88;;;-141.97;47.86
7018;BME280;3549;42.162;24.726;2023-02-14T04:41:52;47588.28;;;-141.97;48.33
7018;BME280;3549;42.162;24.726;2023-02-14T04:44:17;47619.03;;;-141.97;48.59
7018;BME280;3549;42.162;24.726;2023-02-14T04:46:42;47657.47;;;-141.97;48.37
7018;BME280;3549;42.162;24.726;2023-02-14T04:49:08;47630.56;;;-141.97;47.98
7018;BME280;3549;42.162;24.726;2023-02-14T04:51:33;47611.34;;;-141.97;47.86
7018;BME280;3549;42.162;24.726;2023-02-14T04:53:59;47615.19;;;-141.97;47.68
7018;BME280;3549;42.162;24.726;2023-02-14T04:56:24;47734.34;;;-141.97;47.33
7018;BME280;3549;42.162;24.726;2023-02-14T04:58:51;47567.13;;;-141.97;47.34
7018;BME280;3549;42.162;24.726;2023-02-14T05:01:16;47580.59;;;-141.97;47.46
7018;BME280;3549;42.162;24.726;2023-02-14T05:03:42;47634.41;;;-141.97;47.69
7018;BME280;3549;42.162;24.726;2023-02-14T05:06:07;47584.44;;;-141.97;47.24
7018;BME280;3549;42.162;24.726;2023-02-14T05:08:33;47640.16;;;-141.97;47.57
7018;BME280;3549;42.162;24.726;2023-02-14T05:10:58;47619.03;;;-141.97;47.69
7018;BME280;3549;42.162;24.726;2023-02-14T05:13:24;47701.69;;;-141.97;48.04
7018;BME280;3549;42.162;24.726;2023-02-14T05:15:49;47672.84;;;-141.97;48.25
7018;BME280;3549;42.162;24.726;2023-02-14T05:18:14;47718.97;;;-141.97;48.10
7018;BME280;3549;42.162;24.726;2023-02-14T05:20:40;47624.78;;;-141.97;48.58
7018;BME280;3549;42.162;24.726;2023-02-14T05:23:05;47553.69;;;-141.97;48.66
7018;BME280;3549;42.162;24.726;2023-02-14T05:25:38;47749.72;;;-141.97;48.42
7018;BME280;3549;42.162;24.726;2023-02-14T05:28:03;47572.91;;;-141.97;48.76
7018;BME280;3549;42.162;24.726;2023-02-14T05:30:29;47649.78;;;-141.97;48.58
7018;BME280;3549;42.162;24.726;2023-02-14T05:32:54;47546.00;;;-141.97;48.38
7018;BME280;3549;42.162;24.726;2023-02-14T05:35:20;47534.44;;;-141.97;48.17
7018;BME280;3549;42.162;24.726;2023-02-14T05:37:45;47634.41;;;-141.97;48.21
7018;BME280;3549;42.162;24.726;2023-02-14T05:40:10;47636.31;;;-141.97;48.29
7018;BME280;3549;42.162;24.726;2023-02-14T05:42:38;47638.25;;;-141.97;48.19
7018;BME280;3549;42.162;24.726;2023-02-14T05:45:04;47599.81;;;-141.97;48.35
7018;BME280;3549;42.162;24.726;2023-02-14T05:47:31;47632.47;;;-141.97;48.55
7018;BME280;3549;42.162;24.726;2023-02-14T05:49:56;47636.31;;;-141.97;48.45
7018;BME280;3549;42.162;24.726;2023-02-14T05:52:22;47634.41;;;-141.97;48.74
7018;BME280;3549;42.162;24.726;2023-02-14T05:54:47;47601.72;;;-141.97;48.92
7018;BME280;3549;42.162;24.726;2023-02-14T05:57:13;47595.97;;;-141.97;48.61
7018;BME280;3549;42.162;24.726;2023-02-14T05:59:38;47576.75;;;-141.97;47.74
7018;BME280;3549;42.162;24.726;2023-02-14T06:02:03;47599.81;;;-141.97;48.00
7018;BME280;3549;42.162;24.726;2023-02-14T06:04:29;47647.84;;;-141.97;47.84
7018;BME280;3549;42.162;24.726;2023-02-14T06:06:54;47661.31;;;-141.97;47.60
7018;BME280;3549;42.162;24.726;2023-02-14T06:09:19;47676.69;;;-141.97;47.48
7018;BME280;3549;42.162;24.726;2023-02-14T06:11:47;47680.53;;;-141.97;47.06
7018;BME280;3549;42.162;24.726;2023-02-14T06:14:32;47661.31;;;-141.97;47.45
7018;BME280;3549;42.162;24.726;2023-02-14T06:16:58;47713.22;;;-141.97;47.25
7018;BME280;3549;42.162;24.726;2023-02-14T06:19:23;47757.41;;;-141.97;47.10
7018;BME280;3549;42.162;24.726;2023-02-14T06:21:49;47549.84;;;-141.97;46.77
7018;BME280;3549;42.162;24.726;2023-02-14T06:24:14;47584.44;;;-141.97;46.56
7018;BME280;3549;42.162;24.726;2023-02-14T06:26:39;47632.47;;;-141.97;46.80
7018;BME280;3549;42.162;24.726;2023-02-14T06:29:05;47705.53;;;-141.97;46.78
7018;BME280;3549;42.162;24.726;2023-02-14T06:31:30;47578.66;;;-141.97;46.45
7018;BME280;3549;42.162;24.726;2023-02-14T06:33:56;47626.72;;;-141.97;46.27
7018;BME280;3549;42.162;24.726;2023-02-14T06:36:22;47720.91;;;-141.97;46.18
7018;BME280;3549;42.162;24.726;2023-02-14T06:38:47;47594.03;;;-141.97;45.87
7018;BME280;3549;42.162;24.726;2023-02-14T06:41:14;47672.84;;;-141.97;45.55
7018;BME280;3549;42.162;24.726;2023-02-14T06:43:42;47695.91;;;-141.97;45.60
7018;BME280;3549;42.162;24.726;2023-02-14T06:46:08;47626.72;;;-141.97;45.52
7018;BME280;3549;42.162;24.726;2023-02-14T06:48:34;47680.53;;;-141.97;45.45
7018;BME280;3549;42.162;24.726;2023-02-14T06:50:59;47665.16;;;-141.97;45.14
7018;BME280;3549;42.162;24.726;2023-02-14T06:53:25;47647.84;;;-141.97;45.14
7018;BME280;3549;42.162;24.726;2023-02-14T06:55:50;47680.53;;;-141.97;44.85
7018;BME280;3549;42.162;24.726;2023-02-14T06:58:15;47738.19;;;-141.97;44.64
7018;BME280;3549;42.162;24.726;2023-02-14T07:00:41;47601.72;;;-141.97;44.31
7018;BME280;3549;42.162;24.726;2023-02-14T07:03:08;47586.34;;;-141.97;44.48
7018;BME280;3549;42.162;24.726;2023-02-14T07:05:33;47617.09;;;-141.97;44.00
7018;BME280;3549;42.162;24.726;2023-02-14T07:07:59;47595.97;;;-141.97;43.89
7018;BME280;3549;42.162;24.726;2023-02-14T07:10:25;47651.69;;;-141.97;43.69
7018;BME280;3549;42.162;24.726;2023-02-14T07:12:50;47603.66;;;-141.97;43.67
7018;BME280;3549;42.162;24.726;2023-02-14T07:15:15;47665.16;;;-141.97;43.68
7018;BME280;3549;42.162;24.726;2023-02-14T07:17:41;47661.31;;;-141.97;43.48
7018;BME280;3549;42.162;24.726;2023-02-14T07:20:07;47588.28;;;-141.97;43.32
7018;BME280;3549;42.162;24.726;2023-02-14T07:22:34;47580.59;;;-141.97;43.67
7018;BME280;3549;42.162;24.726;2023-02-14T07:24:59;47634.41;;;-141.97;43.59
7018;BME280;3549;42.162;24.726;2023-02-14T07:27:25;47634.41;;;-141.97;43.62
7018;BME280;3549;42.162;24.726;2023-02-14T07:29:50;47665.16;;;-141.97;43.40
7018;BME280;3549;42.162;24.726;2023-02-14T07:32:16;47728.59;;;-141.97;43.55
7018;BME280;3549;42.162;24.726;2023-02-14T07:34:41;47726.66;;;-141.97;42.75
7018;BME280;3549;42.162;24.726;2023-02-14T07:37:07;47644.00;;;-141.97;42.92
7018;BME280;3549;42.162;24.726;2023-02-14T07:39:32;47624.78;;;-141.97;42.70
7018;BME280;3549;42.162;24.726;2023-02-14T07:41:58;47588.28;;;-141.97;42.86
7018;BME280;3549;42.162;24.726;2023-02-14T07:44:23;47669.00;;;-141.97;43.08
7018;BME280;3549;42.162;24.726;2023-02-14T07:46:49;47680.53;;;-141.97;42.85
7018;BME280;3549;42.162;24.726;2023-02-14T07:49:14;47611.34;;;-141.97;42.61
7018;BME280;3549;42.162;24.726;2023-02-14T07:51:40;47655.53;;;-141.97;42.38
7018;BME280;3549;42.162;24.726;2023-02-14T07:54:05;47653.63;;;-141.97;42.46
7018;BME280;3549;42.162;24.726;2023-02-14T07:56:31;47669.00;;;-141.97;41.98
7018;BME280;3549;42.162;24.726;2023-02-14T07:58:56;47644.00;;;-141.97;42.97
7018;BME280;3549;42.162;24.726;2023-02-14T08:01:22;47592.13;;;-141.97;43.01
7018;BME280;3549;42.162;24.726;2023-02-14T08:03:47;47626.72;;;-141.97;42.37
7018;BME280;3549;42.162;24.726;2023-02-14T08:06:17;47647.84;;;-141.97;42.32
7018;BME280;3549;42.162;24.726;2023-02-14T08:08:44;47682.47;;;-141.97;42.73
7018;BME280;3549;42.162;24.726;2023-02-14T08:11:10;47692.06;;;-141.97;42.56
7018;BME280;3549;42.162;24.726;2023-02-14T08:13:35;47715.13;;;-141.97;42.18
7018;BME280;3549;42.162;24.726;2023-02-14T08:16:01;47599.81;;;-141.97;42.41
7018;BME280;3549;42.162;24.726;2023-02-14T08:18:37;47588.28;;;-141.97;42.21
7018;BME280;3549;42.162;24.726;2023-02-14T08:21:04;47578.66;;;-141.97;42.04
7018;BME280;3549;42.162;24.726;2023-02-14T08:23:30;47620.94;;;-141.97;42.25
7018;BME280;3549;42.162;24.726;2023-02-14T08:25:55;47678.63;;;-141.97;42.16
7018;BME280;3549;42.162;24.726;2023-02-14T08:28:21;47626.72;;;-141.97;41.70
7018;BME280;3549;42.162;24.726;2023-02-14T08:30:47;47694.00;;;-141.97;41.43
7018;BME280;3549;42.162;24.726;2023-02-14T08:33:12;47751.66;;;-141.97;40.89
7018;BME280;3549;42.162;24.726;2023-02-14T08:35:38;47630.56;;;-141.97;41.08
7018;BME280;3549;42.162;24.726;2023-02-14T08:38:03;47653.63;;;-141.97;40.34
7018;BME280;3549;42.162;24.726;2023-02-14T08:40:29;47649.78;;;-141.97;39.85
7018;BME280;3549;42.162;24.726;2023-02-14T08:42:55;47628.63;;;-141.97;40.57
7018;BME280;3549;42.162;24.726;2023-02-14T08:45:20;47638.25;;;-141.97;40.06
7018;BME280;3549;42.162;24.726;2023-02-14T08:47:46;47620.94;;;-141.97;40.03
7018;BME280;3549;42.162;24.726;2023-02-14T08:50:14;47669.00;;;-141.97;40.40
7018;BME280;3549;42.162;24.726;2023-02-14T08:52:41;47676.69;;;-141.97;39.90
7018;BME280;3549;42.162;24.726;2023-02-14T08:55:09;47661.31;;;-141.97;39.48
7018;BME280;3549;42.162;24.726;2023-02-14T08:57:35;47667.06;;;-141.97;39.35
7018;BME280;3549;42.162;24.726;2023-02-14T09:00:00;47626.72;;;-141.97;39.04
7018;BME280;3549;42.162;24.726;2023-02-14T09:02:26;47655.53;;;-141.97;39.30
7018;BME280;3549;42.162;24.726;2023-02-14T09:04:51;47572.91;;;-141.97;39.07
7018;BME280;3549;42.162;24.726;2023-02-14T09:07:17;47718.97;;;-141.97;38.94
7018;BME280;3549;42.162;24.726;2023-02-14T09:09:43;47615.19;;;-141.97;38.93
7018;BME280;3549;42.162;24.726;2023-02-14T09:12:09;47669.00;;;-141.97;38.65
7018;BME280;3549;42.162;24.726;2023-02-14T09:14:40;47651.69;;;-141.97;38.18
7018;BME280;3549;42.162;24.726;2023-02-14T09:17:08;47647.84;;;-141.97;38.46
7018;BME280;3549;42.162;24.726;2023-02-14T09:19:35;47667.06;;;-141.97;39.23
7018;BME280;3549;42.162;24.726;2023-02-14T09:22:00;47553.69;;;-141.97;38.67
7018;BME280;3549;42.162;24.726;2023-02-14T09:24:29;47649.78;;;-141.97;38.77
7018;BME280;3549;42.162;24.726;2023-02-14T09:26:55;47670.91;;;-141.97;39.20
7018;BME280;3549;42.162;24.726;2023-02-14T09:29:22;47749.72;;;-141.97;38.88
7018;BME280;3549;42.162;24.726;2023-02-14T09:31:51;47640.16;;;-141.97;38.51
7018;BME280;3549;42.162;24.726;2023-02-14T09:34:17;47624.78;;;-141.97;38.71
7018;BME280;3549;42.162;24.726;2023-02-14T09:36:42;47636.31;;;-141.97;38.52
7018;BME280;3549;42.162;24.726;2023-02-14T09:39:26;47649.78;;;-141.97;38.15
7018;BME280;3549;42.162;24.726;2023-02-14T09:47:46;47653.63;;;-141.97;37.83
7018;BME280;3549;42.162;24.726;2023-02-14T09:52:44;47590.19;;;-141.97;37.27
7018;BME280;3549;42.162;24.726;2023-02-14T09:55:15;47661.31;;;-141.97;36.38
7018;BME280;3549;42.162;24.726;2023-02-14T09:57:57;47609.41;;;-141.97;36.52
7018;BME280;3549;42.162;24.726;2023-02-14T10:00:36;47622.88;;;-141.97;36.46
7018;BME280;3549;42.162;24.726;2023-02-14T10:03:14;47651.69;;;-141.97;36.09
7018;BME280;3549;42.162;24.726;2023-02-14T10:11:16;47645.94;;;-141.97;36.13
7018;BME280;3549;42.162;24.726;2023-02-14T10:13:55;47642.09;;;-141.97;35.52
7018;BME280;3549;42.162;24.726;2023-02-14T10:16:27;47669.00;;;-141.97;35.22
7018;BME280;3549;42.162;24.726;2023-02-14T10:19:07;47726.66;;;-141.97;34.83
7018;BME280;3549;42.162;24.726;2023-02-14T10:21:51;47626.72;;;-141.97;35.43
7018;BME280;3549;42.162;24.726;2023-02-14T10:24:20;47649.78;;;-141.97;35.32
7018;BME280;3549;42.162;24.726;2023-02-14T10:26:48;47669.00;;;-141.97;35.34
7018;BME280;3549;42.162;24.726;2023-02-14T10:29:15;47534.44;;;-141.97;34.44
7018;BME280;3549;42.162;24.726;2023-02-14T10:31:56;47653.63;;;-141.97;34.56
7018;BME280;3549;42.162;24.726;2023-02-14T10:45:41;47626.72;;;-141.97;35.91
7018;BME280;3549;42.162;24.726;2023-02-14T10:48:23;47530.59;;;-141.97;36.15
7018;BME280;3549;42.162;24.726;2023-02-14T10:51:03;47676.69;;;-141.97;35.89
7018;BME280;3549;42.162;24.726;2023-02-14T10:53:47;47672.84;;;-141.97;36.01
7018;BME280;3549;42.162;24.726;2023-02-14T10:56:22;47617.09;;;-141.97;36.10
7018;BME280;3549;42.162;24.726;2023-02-14T10:58:52;47778.56;;;-141.97;36.35
7018;BME280;3549;42.162;24.726;2023-02-14T11:01:20;47599.81;;;-141.97;36.47
7018;BME280;3549;42.162;24.726;2023-02-14T11:03:57;47613.25;;;-141.97;36.47
7018;BME280;3549;42.162;24.726;2023-02-14T11:06:28;47651.69;;;-141.97;37.10
7018;BME280;3549;42.162;24.726;2023-02-14T11:08:54;47653.63;;;-141.97;36.50
7018;BME280;3549;42.162;24.726;2023-02-14T11:11:30;47592.13;;;-141.97;36.03
7018;BME280;3549;42.162;24.726;2023-02-14T11:13:56;47663.22;;;-141.97;35.51
7018;BME280;3549;42.162;24.726;2023-02-14T11:16:33;47665.16;;;-141.97;35.89
7018;BME280;3549;42.162;24.726;2023-02-14T11:21:42;47603.66;;;-141.97;35.19
7018;BME280;3549;42.162;24.726;2023-02-14T11:24:37;47657.47;;;-141.97;35.54
7018;BME280;3549;42.162;24.726;2023-02-14T11:32:15;47630.56;;;-141.97;37.40
7018;BME280;3549;42.162;24.726;2023-02-14T11:34:50;47649.78;;;-141.97;37.03
7018;BME280;3549;42.162;24.726;2023-02-14T11:39:53;47676.69;;;-141.97;37.27
7018;BME280;3549;42.162;24.726;2023-02-14T11:42:40;47630.56;;;-141.97;37.22
7018;BME280;3549;42.162;24.726;2023-02-14T11:50:51;47590.19;;;-141.97;36.74
7018;BME280;3549;42.162;24.726;2023-02-14T11:53:20;47632.47;;;-141.97;36.64
7018;BME280;3549;42.162;24.726;2023-02-14T11:55:51;47740.13;;;-141.97;36.45
7018;BME280;3549;42.162;24.726;2023-02-14T11:58:32;47649.78;;;-141.97;36.50
7018;BME280;3549;42.162;24.726;2023-02-14T12:01:01;47684.38;;;-141.97;36.79
7018;BME280;3549;42.162;24.726;2023-02-14T12:03:28;47636.31;;;-141.97;36.80
7018;BME280;3549;42.162;24.726;2023-02-14T12:05:57;47572.91;;;-141.97;37.04
7018;BME280;3549;42.162;24.726;2023-02-14T12:08:28;47640.16;;;-141.97;36.94
7018;BME280;3549;42.162;24.726;2023-02-14T12:11:26;47678.63;;;-141.97;36.95
7018;BME280;3549;42.162;24.726;2023-02-14T12:13:53;47563.28;;;-141.97;36.96
7018;BME280;3549;42.162;24.726;2023-02-14T12:16:37;47613.25;;;-141.97;37.16
7018;BME280;3549;42.162;24.726;2023-02-14T12:22:28;47588.28;;;-141.97;37.11
7018;BME280;3549;42.162;24.726;2023-02-14T12:25:26;47622.88;;;-141.97;36.70
7018;BME280;3549;42.162;24.726;2023-02-14T12:28:11;47743.97;;;-141.97;36.54
7018;BME280;3549;42.162;24.726;2023-02-14T12:30:39;47768.94;;;-141.97;36.57
7018;BME280;3549;42.162;24.726;2023-02-14T12:33:19;47657.47;;;-141.97;36.88
7018;BME280;3549;42.162;24.726;2023-02-14T12:38:40;47603.66;;;-141.97;36.74
7018;BME280;3549;42.162;24.726;2023-02-14T12:43:51;47642.09;;;-141.97;37.22
7018;BME280;3549;42.162;24.726;2023-02-14T12:54:52;47738.19;;;-141.97;38.73
7018;BME280;3549;42.162;24.726;2023-02-14T12:58:08;47644.00;;;-141.97;38.37
7018;BME280;3549;42.162;24.726;2023-02-14T13:00:51;47630.56;;;-141.97;37.94
7018;BME280;3549;42.162;24.726;2023-02-14T13:06:08;47665.16;;;-141.97;38.01
7018;BME280;3549;42.162;24.726;2023-02-14T13:16:43;47657.47;;;-141.97;38.28
7018;BME280;3549;42.162;24.726;2023-02-14T13:21:47;47722.81;;;-141.97;37.65
7018;BME280;3549;42.162;24.726;2023-02-14T13:24:19;47572.91;;;-141.97;37.73
7018;BME280;3549;42.162;24.726;2023-02-14T13:26:49;47615.19;;;-141.97;38.00
7018;BME280;3549;42.162;24.726;2023-02-14T13:29:22;47511.38;;;-141.97;38.18
7018;BME280;3549;42.162;24.726;2023-02-14T13:31:50;47613.25;;;-141.97;38.11
7018;BME280;3549;42.162;24.726;2023-02-14T13:36:46;47609.41;;;-141.97;38.10
7018;BME280;3549;42.162;24.726;2023-02-14T13:39:28;47730.50;;;-141.97;38.38
7018;BME280;3549;42.162;24.726;2023-02-14T13:41:55;47561.38;;;-141.97;38.46
7018;BME280;3549;42.162;24.726;2023-02-14T13:44:46;47642.09;;;-141.97;38.40
7018;BME280;3549;42.162;24.726;2023-02-14T13:47:21;47657.47;;;-141.97;38.49
7018;BME280;3549;42.162;24.726;2023-02-14T13:49:54;47622.88;;;-141.97;39.55
7018;BME280;3549;42.162;24.726;2023-02-14T13:52:44;47670.91;;;-141.97;39.19
7018;BME280;3549;42.162;24.726;2023-02-14T13:55:19;47649.78;;;-141.97;38.68
7018;BME280;3549;42.162;24.726;2023-02-14T13:57:45;47659.38;;;-141.97;38.20
7018;BME280;3549;42.162;24.726;2023-02-14T14:00:48;47647.84;;;-141.97;38.12
7018;BME280;3549;42.162;24.726;2023-02-14T14:06:10;47638.25;;;-141.97;38.25
7018;BME280;3549;42.162;24.726;2023-02-14T14:08:41;47684.38;;;-141.97;38.43
7018;BME280;3549;42.162;24.726;2023-02-14T14:11:47;47667.06;;;-141.97;38.68
7018;BME280;3549;42.162;24.726;2023-02-14T14:13:59;47757.41;;;-141.97;38.17
7018;BME280;3549;42.162;24.726;2023-02-14T14:16:29;47532.53;;;-141.97;37.97
7018;BME280;3549;42.162;24.726;2023-02-14T14:19:02;47657.47;;;-141.97;38.42
7018;BME280;3549;42.162;24.726;2023-02-14T14:21:40;47653.63;;;-141.97;38.55
7018;BME280;3549;42.162;24.726;2023-02-14T14:25:02;47657.47;;;-141.97;38.38
7018;BME280;3549;42.162;24.726;2023-02-14T14:27:33;47647.84;;;-141.97;38.01
7018;BME280;3549;42.162;24.726;2023-02-14T14:30:04;47647.84;;;-141.97;37.71
7018;BME280;3549;42.162;24.726;2023-02-14T14:32:32;47670.91;;;-141.97;37.63
7018;BME280;3549;42.162;24.726;2023-02-14T14:37:49;47674.78;;;-141.97;38.12
7018;BME280;3549;42.162;24.726;2023-02-14T14:40:25;47657.47;;;-141.97;38.27
7018;BME280;3549;42.162;24.726;2023-02-14T14:42:52;47649.78;;;-141.97;39.74
7018;BME280;3549;42.162;24.726;2023-02-14T14:45:23;47624.78;;;-141.97;40.11
7018;BME280;3549;42.162;24.726;2023-02-14T14:47:52;47628.63;;;-141.97;41.20
7018;BME280;3549;42.162;24.726;2023-02-14T14:50:26;47661.31;;;-141.97;40.87
7018;BME280;3549;42.162;24.726;2023-02-14T14:53:05;47657.47;;;-141.97;41.84
7018;BME280;3549;42.162;24.726;2023-02-14T14:55:34;47617.09;;;-141.97;42.25
7018;BME280;3549;42.162;24.726;2023-02-14T14:58:06;47653.63;;;-141.97;42.08
7018;BME280;3549;42.162;24.726;2023-02-14T15:00:52;47624.78;;;-141.97;42.69
7018;BME280;3549;42.162;24.726;2023-02-14T15:03:20;47657.47;;;-141.97;42.97
7018;BME280;3549;42.162;24.726;2023-02-14T15:05:49;47657.47;;;-141.97;43.00
7018;BME280;3549;42.162;24.726;2023-02-14T15:10:54;47680.53;;;-141.97;44.04
7018;BME280;3549;42.162;24.726;2023-02-14T15:13:30;47630.56;;;-141.97;44.13
7018;BME280;3549;42.162;24.726;2023-02-14T15:16:48;47655.53;;;-141.97;44.89
7018;BME280;3549;42.162;24.726;2023-02-14T15:19:28;47653.63;;;-141.97;45.08
7018;BME280;3549;42.162;24.726;2023-02-14T15:22:03;47661.31;;;-141.97;45.33
7018;BME280;3549;42.162;24.726;2023-02-14T15:24:31;47626.72;;;-141.97;45.47
7018;BME280;3549;42.162;24.726;2023-02-14T15:27:00;47657.47;;;-141.97;45.52